Date,TemperatureHighF,TemperatureAvgF,TemperatureLowF,DewpointHighF,DewpointAvgF,DewpointLowF,HumidityHigh,HumidityAvg,HumidityLow,PressureMaxIn,PressureMinIn,WindSpeedMaxMPH,WindSpeedAvgMPH,GustSpeedMaxMPH,PrecipitationSumIn
2013-1-1,38.7,32.1,16.9,20.5,18.4,13.5,89,58,44,29.56,28.98,24,6,0,0.00
2013-1-2,31.1,16.8,8.8,22.1,13.4,6.4,95,87,69,29.40,29.00,8,2,0,0.00
2013-1-3,16.5,13.2,9.3,13.6,10.6,6.5,92,89,85,29.51,29.40,7,2,0,0.00
2013-1-4,14.9,5.7,-2.2,11.2,2.5,-6.3,90,86,81,29.69,29.47,5,1,0,0.00
2013-1-5,2.1,-3.1,-8.0,-1.1,-7.4,-13.0,86,81,78,29.68,29.23,5,1,0,0.00
2013-1-6,5.9,-0.7,-8.9,2.7,-4.7,-13.9,87,83,78,29.25,29.08,3,1,0,0.00
2013-1-7,-0.2,-8.4,-18.4,-4.1,-13.3,-24.6,83,78,72,29.38,29.01,3,2,0,0.00
2013-1-8,-0.6,-8.4,-20.9,-4.8,-13.4,-27.6,82,78,70,29.98,29.38,3,1,0,0.00
2013-1-9,-1.5,-10.5,-20.9,-5.6,-15.7,-27.3,82,77,71,30.04,29.77,4,1,0,0.00
2013-1-10,10.4,-0.2,-20.0,7.8,-4.1,-26.4,89,83,71,29.94,29.74,3,1,0,0.00
2013-1-11,14.2,5.2,-9.0,12.3,1.9,-14.0,92,86,78,30.05,29.74,3,1,0,0.00
2013-1-12,15.3,12.8,6.4,13.4,10.7,3.6,93,91,88,30.05,29.55,4,1,0,0.00
2013-1-13,30.7,26.7,16.0,30.2,26.1,14.3,98,98,93,29.60,29.37,5,0,0,0.00
2013-1-14,35.1,30.9,27.0,34.6,30.4,26.5,98,98,93,29.70,29.07,18,4,0,0.55
2013-1-15,28.8,14.4,1.0,28.3,11.3,-2.2,98,87,80,30.08,29.71,20,5,0,0.00
2013-1-16,5.4,-0.8,-8.9,2.4,-4.5,-13.6,87,84,79,30.09,29.70,4,1,0,0.00
2013-1-17,6.1,-2.0,-11.2,3.3,-5.7,-16.1,88,83,78,30.05,29.66,4,2,0,0.00
2013-1-18,-12.1,-25.3,-31.4,-17.2,-32.0,-38.7,77,69,66,30.30,30.06,4,0,0,0.00
2013-1-19,0.5,-12.1,-29.7,-3.4,-17.3,-37.1,84,77,66,30.32,29.97,2,0,0,0.00
2013-1-20,9.7,6.0,-6.2,7.2,3.0,-10.7,90,87,80,29.97,29.87,6,2,0,0.00
2013-1-21,11.5,7.7,1.9,7.5,4.2,-2.6,89,85,80,30.00,29.87,9,2,0,0.00
2013-1-22,10.4,6.3,-5.8,4.1,0.6,-9.8,86,77,72,29.88,29.58,19,8,0,0.00
2013-1-23,9.5,6.8,2.1,2.2,-0.6,-5.7,74,71,67,29.59,29.46,18,9,0,0.00
2013-1-24,1.8,-4.9,-10.1,-5.1,-10.2,-16.4,81,77,70,29.71,29.51,12,7,0,0.00
2013-1-25,-9.4,-27.0,-40.0,-14.9,-34.2,-49.1,76,67,58,29.92,29.70,7,2,0,0.00
2013-1-26,-31.5,-37.9,-40.0,-39.9,-46.9,-49.7,63,59,56,30.06,29.91,3,1,0,0.00
2013-1-27,-32.8,-39.5,-40.0,-41.4,-49.1,-50.0,61,56,55,30.51,30.06,3,1,0,0.00
2013-1-28,-30.6,-38.8,-40.0,-39.6,-48.4,-50.6,61,57,53,30.53,29.96,6,1,0,0.00
2013-1-29,-6.2,-18.9,-37.3,-11.7,-25.5,-46.0,78,71,60,29.96,29.76,8,2,0,0.00
2013-1-30,5.5,-0.5,-9.0,2.0,-5.3,-14.0,85,79,75,29.80,29.54,6,3,0,0.00
2013-1-31,10.9,6.9,3.7,7.3,3.4,0.0,87,85,81,29.98,29.58,6,2,0,0.00
2013-2-1,14.5,4.6,-8.0,9.3,0.9,-13.0,89,84,75,30.04,29.75,4,1,0,0.00
2013-2-2,21.7,2.9,-7.8,17.9,-0.5,-12.5,90,85,79,29.74,29.37,4,2,0,0.00
2013-2-3,12.4,5.9,-1.1,9.1,2.5,-5.0,89,86,82,29.37,29.17,4,1,0,0.00
2013-2-4,14.4,8.5,-0.6,10.5,5.3,-4.3,91,87,80,29.52,29.34,0,0,0,0.00
2013-2-5,6.1,-0.3,-3.3,2.8,-3.9,-7.1,86,84,83,29.53,29.46,0,0,0,0.00
2013-2-6,3.6,-0.4,-3.8,-0.4,-4.4,-7.9,86,83,81,29.60,29.46,0,0,0,0.00
2013-2-7,4.1,-3.2,-15.5,0.6,-7.5,-21.1,86,81,75,29.57,29.17,0,0,0,0.00
2013-2-8,8.2,0.9,-6.0,3.1,-3.0,-10.3,86,83,76,29.68,29.19,4,0,0,0.00
2013-2-9,30.4,8.8,-11.7,26.9,5.5,-16.8,96,86,77,29.68,28.88,7,2,0,0.00
2013-2-10,28.6,20.6,11.8,26.2,18.4,8.2,96,91,82,29.35,28.78,9,3,0,0.00
2013-2-11,23.0,16.4,6.3,18.5,14.1,3.5,96,90,81,29.58,29.35,6,3,0,0.00
2013-2-12,16.5,-1.7,-12.5,11.4,-5.9,-17.9,89,82,75,29.66,29.57,3,1,0,0.00
2013-2-13,15.6,-4.2,-12.8,10.6,-8.6,-18.0,89,81,76,29.66,29.60,4,1,0,0.00
2013-2-14,20.7,15.5,0.7,17.7,12.7,-2.7,92,88,85,29.58,29.18,4,1,0,0.00
2013-2-15,20.5,7.7,-1.8,15.8,3.4,-6.4,89,82,75,29.92,29.28,17,6,0,0.00
2013-2-16,7.7,-5.9,-16.8,-1.6,-11.6,-22.3,84,76,64,30.00,29.76,5,2,0,0.00
2013-2-17,-2.4,-7.8,-13.7,-8.7,-13.1,-19.0,79,77,72,30.04,29.72,11,4,0,0.00
2013-2-18,-2.2,-17.1,-35.0,-9.0,-23.7,-42.7,76,71,63,30.14,30.02,9,2,0,0.00
2013-2-19,0.9,-21.2,-40.0,-8.0,-29.4,-48.8,69,64,59,30.02,29.44,15,5,0,0.00
2013-2-20,3.2,-4.0,-13.7,-6.0,-12.1,-21.3,77,67,58,29.44,29.22,13,8,0,0.00
2013-2-21,3.6,-1.5,-4.9,-5.1,-7.8,-12.1,81,74,63,29.28,29.17,14,8,0,0.00
2013-2-22,1.8,-8.5,-25.4,-7.5,-15.4,-32.2,77,71,58,29.49,29.21,8,3,0,0.00
2013-2-23,6.6,-7.7,-26.5,-3.8,-15.3,-33.5,80,69,59,29.41,29.10,9,4,0,0.00
2013-2-24,2.1,-10.1,-17.9,-8.6,-16.9,-23.6,80,72,59,29.52,29.15,4,2,0,0.00
2013-2-25,18.0,-3.8,-18.4,5.0,-11.1,-24.4,86,71,54,29.59,29.53,5,2,0,0.00
2013-2-26,26.4,4.5,-15.7,13.1,-2.4,-21.5,91,73,54,29.58,29.29,7,2,0,0.00
2013-2-27,35.6,13.5,-7.4,18.4,4.7,-12.4,86,69,47,29.30,29.13,7,3,0,0.01
2013-2-28,32.5,15.5,0.7,16.5,7.6,-3.5,90,72,46,29.31,29.18,5,3,0,0.00
2013-3-1,17.6,10.8,6.8,9.8,5.5,0.7,91,79,71,29.83,29.31,7,3,0,0.00
2013-3-2,20.3,6.2,-4.4,12.1,1.9,-8.7,88,82,70,29.98,29.82,5,1,0,0.00
2013-3-3,21.0,1.3,-15.0,10.5,-4.6,-20.8,86,76,62,30.25,29.98,4,2,0,0.00
2013-3-4,29.3,4.9,-14.8,14.7,-2.1,-20.6,89,73,54,30.31,30.11,3,1,0,0.00
2013-3-5,32.5,14.0,2.7,16.9,7.3,-0.8,91,76,48,30.10,29.74,5,1,0,0.00
2013-3-6,21.2,5.2,-8.5,8.0,-1.2,-13.5,88,75,56,29.76,29.69,6,2,0,0.00
2013-3-7,40.8,16.6,-7.2,21.9,6.9,-12.0,85,68,45,29.68,29.21,12,3,0,0.00
2013-3-8,47.3,29.8,14.4,27.8,20.6,11.6,92,70,43,29.43,29.27,12,3,0,0.04
2013-3-9,43.9,29.0,18.5,27.5,20.6,12.2,97,72,47,29.83,29.44,10,4,0,0.00
2013-3-10,31.5,23.0,10.9,26.7,18.0,6.2,97,82,59,30.13,29.84,14,4,0,0.00
2013-3-11,25.2,9.4,-2.6,13.7,3.8,-6.7,88,78,61,30.40,30.14,7,2,0,0.00
2013-3-12,24.3,2.6,-16.8,5.6,-7.0,-22.8,84,66,37,30.42,30.17,7,2,0,0.00
2013-3-13,16.2,-2.5,-21.8,-2.0,-15.9,-28.7,79,55,28,30.18,30.04,35,11,0,0.02
2013-3-14,23.7,4.8,-7.4,-6.9,-15.5,-23.5,45,38,22,30.06,29.92,24,12,0,0.00
2013-3-15,24.8,10.2,-2.0,-7.9,-13.9,-19.7,46,33,17,29.99,29.75,20,8,0,0.00
2013-3-16,27.9,12.6,-4.7,1.5,-6.1,-16.3,62,43,28,29.99,29.82,10,5,0,0.00
2013-3-17,19.0,2.6,-14.6,-0.8,-8.7,-20.2,78,60,41,30.14,29.99,5,3,0,0.00
2013-3-18,20.8,4.6,-8.7,-0.8,-7.2,-14.5,78,60,37,29.99,29.81,9,3,0,0.00
2013-3-19,16.9,0.7,-21.3,-3.1,-12.1,-28.2,72,56,36,29.97,29.87,12,4,0,0.00
2013-3-20,14.7,-1.0,-16.4,-1.0,-10.7,-22.7,75,64,47,29.88,29.73,11,3,0,0.00
2013-3-21,21.2,7.8,1.2,5.8,-1.6,-4.6,84,68,36,29.91,29.81,9,4,0,0.00
2013-3-22,32.4,24.3,15.8,15.0,5.6,-2.3,60,44,37,29.84,29.48,16,7,0,0.00
2013-3-23,27.5,5.3,-13.2,18.5,-2.2,-18.3,90,71,46,29.90,29.50,22,7,0,0.00
2013-3-24,11.5,-4.8,-23.6,2.9,-11.7,-30.7,83,72,48,29.88,29.59,7,3,0,0.00
2013-3-25,8.6,4.0,0.9,1.3,-1.8,-5.7,82,76,64,29.61,29.44,14,6,0,0.00
2013-3-26,7.2,-1.3,-16.8,-5.9,-11.6,-23.3,78,62,42,30.06,29.62,14,7,0,0.00
2013-3-27,17.4,-6.2,-32.3,-3.2,-18.6,-40.4,74,56,38,30.11,29.95,7,2,0,0.00
2013-3-28,38.1,9.4,-24.2,12.7,-5.6,-31.5,74,53,33,29.95,29.70,7,2,0,0.00
2013-3-29,48.2,28.3,9.0,19.7,12.2,3.6,78,54,31,29.73,29.63,9,2,0,0.00
2013-3-30,44.2,26.2,7.2,19.0,12.4,2.9,82,58,34,30.02,29.73,6,2,0,0.00
2013-3-31,44.1,29.5,16.7,28.1,19.4,11.1,82,67,46,30.08,29.96,9,2,0,0.00
2013-4-1,41.4,29.4,17.8,27.7,20.9,16.0,95,72,48,29.96,29.82,14,4,0,0.00
2013-4-2,36.5,25.0,7.3,19.3,14.6,4.0,89,66,48,30.00,29.89,10,4,0,0.00
2013-4-3,33.3,24.3,16.9,12.0,7.4,-2.7,63,49,34,30.29,30.01,23,11,0,0.00
2013-4-4,32.9,21.2,10.0,-2.5,-5.9,-18.0,48,32,10,30.30,29.91,23,10,0,0.00
2013-4-5,19.4,12.2,2.7,-3.1,-7.3,-12.2,49,41,32,29.90,29.54,23,12,0,0.00
2013-4-6,21.7,5.3,-14.3,-1.9,-10.2,-21.5,69,49,31,29.54,29.36,14,6,0,0.00
2013-4-7,7.3,3.2,-3.8,3.0,-3.4,-9.7,85,74,56,29.74,29.45,10,5,0,0.00
2013-4-8,12.6,2.4,-15.7,5.5,-3.4,-22.0,85,76,65,29.77,29.29,10,4,0,0.00
2013-4-9,11.8,7.8,5.0,6.5,3.7,0.9,87,83,74,29.28,28.95,16,7,0,0.00
2013-4-10,16.5,8.0,-2.0,3.6,-3.3,-11.8,81,61,38,29.80,29.29,14,7,0,0.00
2013-4-11,16.7,1.6,-21.3,-1.9,-10.3,-28.0,76,58,39,30.08,29.80,11,4,0,0.00
2013-4-12,23.5,6.5,-17.7,3.9,-6.5,-24.2,78,56,39,30.18,30.08,11,3,0,0.00
2013-4-13,27.1,13.2,-14.4,2.4,-3.8,-20.0,79,49,27,30.31,30.19,9,3,0,0.00
2013-4-14,32.7,17.7,-2.0,16.5,5.4,-9.9,73,59,42,30.42,30.31,8,4,0,0.00
2013-4-15,33.8,23.3,8.1,14.5,7.2,2.2,83,54,27,30.38,30.25,16,7,0,0.00
2013-4-16,28.9,19.8,2.5,16.3,6.3,-3.9,77,56,45,30.26,30.06,14,5,0,0.00
2013-4-17,31.3,20.5,-0.4,11.1,6.6,-4.6,87,56,38,30.20,30.04,20,6,0,0.00
2013-4-18,33.6,23.0,7.9,9.1,5.2,-1.1,66,47,34,30.24,30.14,21,9,0,0.00
2013-4-19,45.7,25.8,3.2,12.4,4.3,-4.3,76,44,14,30.30,30.21,8,3,0,0.00
2013-4-20,44.6,30.1,8.2,13.3,8.2,1.9,77,43,21,30.24,30.11,9,4,0,0.00
2013-4-21,50.4,32.8,13.6,14.2,9.8,5.6,75,42,19,30.20,30.11,12,4,0,0.00
2013-4-22,51.3,34.0,9.1,17.4,10.6,5.3,87,43,19,30.30,30.20,9,3,0,0.00
2013-4-23,50.0,34.5,13.8,21.0,15.9,10.1,85,51,24,30.24,30.02,19,5,0,0.00
2013-4-24,37.2,33.5,28.6,31.9,27.3,18.6,98,80,47,30.02,29.79,20,11,0,0.00
2013-4-25,35.1,27.3,18.1,26.0,4.4,-7.1,91,40,22,29.91,29.80,14,8,0,0.00
2013-4-26,32.4,21.7,5.0,22.1,9.7,0.1,92,61,37,29.84,29.42,13,4,0,0.00
2013-4-27,30.2,24.6,15.6,21.9,6.5,-8.7,98,54,19,29.97,29.48,23,8,0,0.00
2013-4-28,36.7,20.7,-3.1,16.6,1.7,-10.5,70,45,22,30.01,29.90,17,5,0,0.00
2013-4-29,32.7,28.1,21.0,27.7,20.5,11.6,96,73,57,29.98,29.90,17,7,0,0.00
2013-4-30,39.0,31.5,25.9,29.2,25.7,21.8,98,81,53,29.91,29.66,8,4,0,0.06
2013-5-1,41.9,32.4,24.6,24.2,21.0,14.9,92,64,46,29.67,29.44,16,9,0,0.00
2013-5-2,37.9,29.5,21.9,23.7,19.1,14.6,76,65,55,29.73,29.51,9,5,0,0.00
2013-5-3,43.3,31.6,24.4,31.9,27.4,22.7,98,85,57,29.78,29.63,15,7,0,0.02
2013-5-4,34.7,27.9,22.5,24.9,22.0,19.5,94,79,66,29.81,29.69,12,6,0,0.00
2013-5-5,39.9,32.4,23.2,22.3,16.4,10.8,84,55,33,29.96,29.82,21,8,0,0.00
2013-5-6,44.4,34.1,14.5,18.2,14.0,9.5,82,46,27,30.03,29.92,15,5,0,0.00
2013-5-7,48.2,38.5,24.6,24.4,19.1,16.6,73,47,32,30.10,30.02,11,5,0,0.00
2013-5-8,51.4,40.4,20.5,24.5,17.7,12.7,83,44,22,30.16,30.03,15,5,0,0.00
2013-5-9,60.4,44.9,21.7,26.6,19.9,16.5,85,43,19,30.21,29.99,10,3,0,0.00
2013-5-10,59.4,49.1,36.5,31.6,24.7,18.2,65,41,22,30.05,29.76,9,3,0,0.00
2013-5-11,60.3,47.2,30.0,31.3,27.2,19.0,78,48,26,29.77,29.46,14,4,0,0.00
2013-5-12,52.5,44.2,34.9,32.1,29.8,25.4,79,58,37,29.48,29.28,15,6,0,0.00
2013-5-13,39.6,30.1,21.7,29.9,9.9,3.6,70,43,33,29.51,29.33,15,9,0,0.00
2013-5-14,44.2,32.7,20.8,19.2,14.6,9.2,83,50,25,29.51,29.40,10,4,0,0.00
2013-5-15,51.1,40.1,19.9,22.8,18.7,14.8,95,47,24,29.53,29.41,19,6,0,0.00
2013-5-16,52.7,40.5,26.1,28.4,23.6,19.6,80,53,32,29.49,29.30,18,6,0,0.00
2013-5-19,32.0,32.0,32.0,16.4,16.4,16.4,52,52,52,30.40,30.40,3,3,0,0.00
2013-5-20,59.7,44.1,24.4,23.0,15.7,10.0,78,36,16,30.47,30.24,12,4,0,0.00
2013-5-21,67.6,50.0,26.6,26.0,17.2,7.1,82,33,11,30.29,29.94,11,4,0,0.00
2013-5-22,66.9,52.1,29.8,30.9,25.4,20.7,83,40,18,29.95,29.77,23,6,0,0.00
2013-5-23,63.5,53.1,34.3,43.1,36.5,27.2,75,54,40,29.93,29.83,16,6,0,0.00
2013-5-24,71.4,59.1,39.6,46.7,39.7,32.2,94,54,24,29.99,29.77,11,3,0,0.00
2013-5-25,77.9,62.9,39.6,41.0,32.6,20.2,85,39,12,29.82,29.59,14,4,0,0.00
2013-5-26,80.6,63.4,38.3,46.7,35.7,31.7,88,41,17,29.71,29.56,16,3,0,0.00
2013-5-27,81.3,69.5,49.1,45.7,40.9,35.7,72,39,21,29.69,29.52,10,5,0,0.00
2013-5-28,82.0,68.2,46.8,48.4,39.9,31.4,83,41,17,29.61,29.45,17,4,0,0.00
2013-5-29,84.4,69.9,46.2,50.1,37.4,21.9,86,38,10,29.52,29.41,12,3,0,0.00
2013-5-30,84.2,69.5,47.3,47.6,38.9,21.1,82,39,10,29.63,29.48,14,4,0,0.00
2013-5-31,82.0,68.8,50.5,48.8,39.4,16.6,71,40,9,29.78,29.64,14,6,0,0.00
2013-6-1,78.8,66.8,48.2,47.0,41.1,32.5,79,43,20,29.87,29.76,16,6,0,0.00
2013-6-2,80.4,67.0,45.7,50.5,44.4,39.4,86,48,24,29.86,29.63,23,6,0,0.00
2013-6-3,59.4,55.2,50.2,51.4,49.2,46.3,98,81,69,29.75,29.47,14,4,0,0.08
2013-6-4,59.2,53.4,48.4,51.3,48.5,44.4,98,84,58,29.47,29.37,13,5,0,0.03
2013-6-5,58.8,53.0,48.7,52.3,45.0,40.1,96,75,61,29.67,29.42,18,8,0,0.04
2013-6-6,63.3,51.7,45.9,47.8,45.0,43.0,95,79,54,29.71,29.62,9,3,0,0.01
2013-6-7,72.1,58.2,39.9,51.1,44.1,39.4,98,64,32,29.73,29.62,10,3,0,0.00
2013-6-8,73.6,62.7,45.7,49.0,45.1,40.0,89,56,31,29.93,29.73,15,5,0,0.00
2013-6-9,69.1,60.8,48.7,48.8,45.2,42.2,86,58,40,30.04,29.93,17,7,0,0.00
2013-6-10,60.8,53.7,48.6,49.4,45.6,41.7,98,75,53,30.11,30.03,16,8,0,0.02
2013-6-11,69.4,57.7,41.7,47.3,42.9,39.7,94,61,37,30.12,29.93,14,5,0,0.00
2013-6-12,72.1,61.8,43.9,44.0,36.1,28.9,77,42,21,29.97,29.85,18,8,0,0.00
2013-6-13,78.6,65.1,43.5,43.9,34.3,19.8,75,38,12,29.97,29.85,14,5,0,0.00
2013-6-14,85.1,70.5,47.3,49.9,39.2,21.2,78,38,10,30.00,29.90,9,3,0,0.00
2013-6-15,87.3,71.3,46.8,50.8,43.3,35.5,83,41,18,30.07,29.93,10,4,0,0.00
2013-6-16,88.0,74.6,55.8,56.0,52.4,49.2,81,49,31,30.06,29.92,12,5,0,0.00
2013-6-17,85.3,76.4,59.0,55.7,43.0,29.7,82,36,14,30.01,29.88,25,9,0,0.00
2013-6-18,85.8,75.7,58.6,46.8,41.2,37.9,54,31,19,29.91,29.65,18,8,0,0.00
2013-6-19,87.3,77.2,59.5,46.6,41.0,35.2,56,30,17,29.71,29.57,16,7,0,0.00
2013-6-20,86.2,74.3,54.5,52.8,43.7,36.4,67,37,18,29.74,29.55,10,4,0,0.00
2013-6-21,75.9,66.7,60.1,58.8,52.6,45.7,92,62,37,29.73,29.56,12,5,0,0.00
2013-6-22,77.2,66.4,52.2,48.8,44.6,39.5,69,47,30,29.72,29.49,11,4,0,0.00
2013-6-23,85.6,70.3,46.2,51.5,44.2,31.2,94,46,15,29.53,29.33,14,4,0,0.00
2013-6-24,87.6,77.6,63.0,54.0,48.7,39.3,59,38,20,29.44,29.36,14,5,0,0.00
2013-6-25,91.9,79.4,61.3,57.5,52.6,47.0,75,42,22,29.46,29.35,21,8,0,0.00
2013-6-26,92.7,81.5,68.2,58.9,53.6,46.5,58,40,21,29.49,29.39,11,5,0,0.00
2013-6-27,81.5,73.3,63.5,62.3,60.0,57.3,82,64,50,29.77,29.49,16,7,0,0.00
2013-6-28,79.0,69.5,59.5,61.3,58.3,55.6,87,69,47,29.86,29.78,12,4,0,0.00
2013-6-29,80.8,70.3,60.4,60.4,57.7,55.6,89,66,44,29.82,29.68,9,4,0,0.00
2013-6-30,85.6,72.6,54.1,59.5,55.8,51.9,94,59,32,29.70,29.41,16,5,0,0.00
2013-7-1,82.2,68.6,59.7,54.7,48.9,42.2,70,51,26,29.45,29.21,22,6,0,0.00
2013-7-2,71.8,61.2,49.8,50.0,45.6,39.8,83,59,32,29.53,29.32,13,4,0,0.00
2013-7-3,73.2,62.5,50.4,52.2,44.7,40.5,94,54,32,29.72,29.54,13,4,0,0.00
2013-7-4,72.0,60.0,43.9,48.1,43.8,38.0,89,57,29,29.84,29.63,18,6,0,0.00
2013-7-5,70.3,59.2,45.0,48.2,44.8,42.1,94,62,37,29.90,29.76,17,4,0,0.00
2013-7-6,77.2,60.5,40.3,50.2,44.6,39.8,98,61,30,29.79,29.54,9,3,0,0.00
2013-7-7,74.1,62.9,42.6,49.8,45.1,40.7,97,56,34,29.55,29.31,16,6,0,0.00
2013-7-8,62.4,55.7,48.9,54.8,50.5,46.1,98,83,61,29.57,29.36,9,4,0,0.13
2013-7-9,64.2,57.1,50.5,52.5,49.7,46.2,98,78,55,29.84,29.57,14,7,0,0.06
2013-7-10,55.6,53.0,50.5,52.8,50.7,49.3,98,92,83,29.88,29.82,16,8,0,0.20
2013-7-11,72.0,59.3,49.6,55.1,51.4,49.0,98,78,49,29.90,29.84,11,3,0,0.00
2013-7-12,81.9,66.2,46.6,53.6,46.0,38.1,91,53,21,29.88,29.74,12,4,0,0.00
2013-7-13,88.9,72.4,49.5,52.1,43.1,36.9,82,40,17,29.84,29.75,11,4,0,0.00
2013-7-14,87.3,73.3,49.6,56.5,50.6,45.6,86,49,25,29.93,29.81,12,4,0,0.00
2013-7-15,79.7,71.1,61.2,55.4,53.6,50.9,72,55,38,29.99,29.88,14,6,0,0.00
2013-7-16,70.2,63.4,57.2,56.2,54.9,53.4,89,74,59,29.99,29.91,14,6,0,0.00
2013-7-17,71.4,62.9,57.6,56.8,54.1,51.0,97,74,49,29.94,29.84,12,6,0,0.00
2013-7-18,73.4,63.6,55.2,58.5,55.4,52.1,98,77,51,29.98,29.84,9,4,0,0.23
2013-7-19,62.4,58.7,56.7,58.4,56.9,53.5,98,94,84,29.95,29.87,22,8,0,0.21
2013-7-20,63.3,56.4,52.7,56.6,53.5,52.2,98,91,69,29.96,29.92,18,9,0,0.12
2013-7-21,67.5,59.8,52.0,54.6,52.2,50.4,98,78,56,29.98,29.92,14,6,0,0.00
2013-7-22,75.6,61.5,43.3,54.7,50.9,42.8,98,71,46,30.06,29.91,9,4,0,0.00
2013-7-23,80.2,66.8,53.4,57.0,54.1,50.9,92,67,39,29.96,29.81,15,5,0,0.00
2013-7-24,73.6,65.4,57.7,61.6,58.1,54.2,88,78,62,29.86,29.77,14,6,0,0.00
2013-7-25,73.2,63.9,56.3,59.1,55.8,48.7,98,77,50,29.88,29.78,14,8,0,0.04
2013-7-26,75.6,64.6,51.1,56.4,51.3,46.7,88,64,43,30.00,29.88,15,6,0,0.00
2013-7-27,79.9,69.3,55.4,59.6,56.4,51.2,86,65,46,30.08,30.00,14,6,0,0.00
2013-7-28,89.1,72.6,51.6,61.3,55.7,50.6,98,60,31,30.03,29.82,12,4,0,0.00
2013-7-29,80.4,72.1,63.0,60.8,57.6,54.2,81,62,43,29.94,29.85,20,8,0,0.00
2013-7-30,77.5,66.7,52.7,58.1,54.8,51.0,95,68,46,30.01,29.92,14,5,0,0.00
2013-7-31,82.4,67.7,48.2,58.5,53.3,47.7,98,64,38,30.00,29.80,9,3,0,0.00
2013-8-1,88.5,71.7,48.4,57.9,51.7,42.3,98,55,20,29.86,29.59,8,3,0,0.00
2013-8-2,82.8,70.6,50.5,56.2,50.4,45.0,89,53,27,29.67,29.51,11,3,0,0.00
2013-8-3,84.2,65.7,49.1,57.2,49.5,39.7,92,62,21,29.54,29.42,13,4,0,0.03
2013-8-4,78.4,66.3,53.4,55.1,49.8,44.7,82,58,32,29.71,29.54,11,4,0,0.00
2013-8-5,79.3,64.8,46.0,56.2,49.0,45.3,98,61,31,29.77,29.66,8,3,0,0.00
2013-8-6,82.6,67.0,43.3,52.2,45.1,38.6,98,52,22,29.79,29.59,18,5,0,0.00
2013-8-7,86.0,68.2,45.5,53.3,47.3,40.2,96,52,20,29.63,29.39,17,4,0,0.00
2013-8-8,83.1,67.6,50.0,53.4,45.4,37.6,87,51,20,29.50,29.38,12,3,0,0.00
2013-8-9,71.2,60.6,47.5,50.7,47.0,42.9,86,62,45,29.52,29.44,8,3,0,0.00
2013-8-10,71.4,61.5,49.6,52.8,49.1,46.0,88,65,43,29.81,29.51,16,4,0,0.00
2013-8-11,76.6,59.6,39.2,54.7,48.7,38.7,98,71,40,29.90,29.73,10,3,0,0.00
2013-8-12,75.0,63.4,52.7,60.3,55.5,50.6,95,77,55,29.90,29.78,8,4,0,0.00
2013-8-13,81.7,65.8,50.0,61.6,57.0,49.5,98,76,49,29.82,29.60,7,3,0,0.00
2013-8-14,69.4,61.6,52.7,58.6,55.4,52.2,98,81,61,29.73,29.63,14,6,0,0.00
2013-8-15,66.0,58.7,52.5,59.5,54.7,51.0,98,87,75,29.69,29.52,10,3,0,0.00
2013-8-16,72.3,61.3,51.1,59.6,54.1,50.6,98,80,49,29.53,29.42,9,3,0,0.00
2013-8-17,75.6,58.9,39.7,58.0,50.5,39.2,98,76,46,29.45,29.28,14,4,0,0.00
2013-8-18,73.0,60.1,51.8,56.9,53.6,51.3,98,81,49,29.36,29.29,11,4,0,0.00
2013-8-19,63.9,57.3,49.6,56.5,53.4,49.1,98,88,59,29.47,29.36,9,4,0,0.02
2013-8-20,54.5,51.7,46.6,53.9,51.2,46.1,98,98,97,29.60,29.47,12,5,0,1.78
2013-8-21,64.2,51.8,39.7,51.2,45.1,39.2,98,81,49,29.64,29.50,9,3,0,0.00
2013-8-22,67.6,54.3,40.6,56.3,47.6,40.1,98,80,55,29.53,29.38,7,3,0,0.00
2013-8-23,56.7,52.1,45.7,56.1,51.5,45.2,98,98,93,29.48,29.34,14,5,0,0.90
2013-8-24,60.6,49.5,37.2,46.5,40.5,33.6,98,74,41,29.75,29.49,14,6,0,0.00
2013-8-25,67.1,46.9,25.2,41.1,34.9,24.7,98,68,28,29.76,29.53,10,3,0,0.00
2013-8-26,66.0,51.5,29.5,40.6,36.9,29.0,98,61,37,29.64,29.55,14,6,0,0.00
2013-8-27,66.4,50.2,30.7,48.2,40.8,30.2,98,72,47,29.66,29.46,8,3,0,0.00
2013-8-28,59.7,52.2,45.9,50.5,47.4,44.9,98,85,63,29.55,29.47,18,5,0,0.13
2013-8-29,56.3,49.5,43.9,53.4,48.3,43.4,98,96,86,29.64,29.47,6,2,0,0.10
2013-8-30,55.0,50.1,46.6,51.4,47.3,41.6,98,91,62,29.80,29.64,9,4,0,0.20
2013-8-31,49.3,44.1,36.9,45.5,40.7,36.4,98,88,64,29.82,29.73,7,2,0,0.00
2013-9-1,52.3,43.2,31.1,42.0,37.7,30.6,98,82,63,29.73,29.47,8,4,0,0.00
2013-9-2,62.6,51.2,44.1,58.0,49.9,42.0,98,95,84,29.47,29.17,8,4,0,0.27
2013-9-3,73.2,57.6,44.1,54.6,49.5,43.6,98,78,42,29.23,28.99,14,4,0,0.01
2013-9-4,63.5,51.3,39.6,52.5,47.1,39.1,98,87,59,29.47,29.18,14,4,0,0.00
2013-9-5,61.9,51.8,39.7,51.0,45.4,39.2,98,80,58,29.80,29.47,10,3,0,0.00
2013-9-6,50.2,45.3,34.9,49.5,43.9,34.4,98,95,85,29.82,29.26,10,4,0,0.06
2013-9-7,56.7,48.1,40.3,52.6,46.7,39.8,98,95,84,29.49,29.27,10,4,0,0.01
2013-9-8,52.5,48.6,46.2,52.0,48.1,45.7,98,98,98,29.60,29.29,10,4,0,0.31
2013-9-9,63.0,50.7,34.5,53.6,45.6,34.0,98,84,57,29.64,29.48,10,4,0,0.01
2013-9-10,70.0,54.9,40.5,50.2,45.8,39.9,98,74,45,29.52,29.43,10,4,0,0.00
2013-9-11,49.8,44.7,37.0,48.6,44.1,36.5,98,98,89,29.62,29.37,18,6,0,0.94
2013-9-12,62.8,50.8,37.9,52.3,46.8,37.4,98,87,62,29.76,29.62,14,4,0,0.00
2013-9-13,50.7,42.5,30.7,50.2,41.7,30.2,98,97,87,29.75,29.65,6,2,0,0.01
2013-9-14,54.9,46.9,35.6,48.5,43.9,35.1,98,90,63,29.90,29.75,10,4,0,0.13
2013-9-15,55.2,40.0,24.3,41.0,33.4,23.8,98,80,47,29.94,29.79,8,3,0,0.00
2013-9-16,54.3,42.6,28.6,33.4,30.2,26.5,94,64,41,29.79,29.50,22,8,0,0.00
2013-9-17,44.8,37.5,30.4,30.9,27.4,23.3,80,67,53,29.50,29.43,12,4,0,0.00
2013-9-18,39.0,32.9,27.7,32.7,30.0,27.2,98,90,75,29.56,29.46,8,4,0,0.03
2013-9-19,40.5,31.6,26.2,31.5,28.2,25.7,98,88,62,29.54,29.41,9,3,0,0.00
2013-9-20,39.0,28.6,21.0,31.3,25.7,20.5,98,90,59,29.40,29.01,6,2,0,0.00
2013-9-21,41.7,29.4,18.7,26.3,22.6,17.5,98,78,52,29.02,28.90,14,4,0,0.00
2013-9-22,31.1,28.9,27.3,30.6,26.8,22.8,98,92,81,29.29,29.02,12,6,0,0.00
2013-9-24,40.6,36.7,31.3,28.8,27.2,25.0,81,69,60,29.81,29.55,14,6,0,0.00
2013-9-25,61.0,45.6,32.2,42.6,36.0,26.1,93,71,48,29.55,29.17,13,6,0,0.00
2013-9-26,48.7,41.9,35.4,42.5,39.3,34.9,98,91,75,29.46,29.13,8,3,0,0.01
2013-9-27,58.1,44.3,34.5,40.9,37.1,32.7,98,78,49,29.12,28.91,9,4,0,0.00
2013-9-28,45.9,37.5,30.2,39.8,35.6,29.7,98,93,77,29.14,29.06,9,3,0,0.08
2013-9-29,38.3,36.0,34.0,37.8,35.5,33.5,98,98,98,29.43,29.14,8,3,0,0.07
2013-9-30,39.7,34.9,31.5,37.2,33.8,31.0,98,96,88,29.66,29.43,7,3,0,0.00
2013-10-1,39.4,33.9,30.6,34.8,32.4,30.1,98,94,83,29.74,29.66,4,2,0,0.00
2013-10-2,45.7,36.6,30.4,37.9,34.2,29.9,98,91,73,29.74,29.63,6,1,0,0.00
2013-10-3,50.5,36.5,25.7,39.6,33.0,25.2,98,88,62,29.66,29.41,6,2,0,0.00
2013-10-4,37.4,33.4,28.2,34.9,32.0,27.7,98,95,88,29.65,29.40,6,2,0,0.00
2013-10-5,45.3,35.6,27.3,36.6,32.8,26.8,98,90,70,29.67,29.49,12,4,0,0.00
2013-10-6,40.1,33.3,28.0,35.1,31.4,27.5,98,93,79,29.53,29.46,10,3,0,0.00
2013-10-7,37.8,32.7,25.9,37.1,32.1,25.4,98,98,95,29.67,29.52,7,2,0,0.08
2013-10-8,49.3,42.7,25.9,37.7,34.1,25.4,98,72,60,29.55,28.77,24,9,0,0.02
2013-10-9,40.3,36.0,34.2,38.9,35.3,31.5,98,97,87,29.51,28.78,27,12,0,0.17
2013-10-10,41.2,32.5,26.2,32.5,29.3,25.7,98,88,69,29.54,29.43,8,4,0,0.00
2013-10-11,45.1,31.9,25.0,35.8,29.7,24.5,98,92,69,29.66,29.48,5,2,0,0.00
2013-10-12,54.3,39.4,23.7,39.6,31.9,23.2,98,78,51,29.62,29.50,14,4,0,0.00
2013-10-13,50.5,47.5,38.5,38.7,34.0,32.4,98,60,52,29.50,29.18,19,9,0,0.06
2013-10-14,47.7,36.7,30.4,41.1,34.8,29.9,98,93,70,29.71,29.35,14,2,0,0.01
2013-10-15,50.4,40.2,30.7,41.3,35.8,30.2,98,86,63,29.74,29.62,8,2,0,0.00
2013-10-16,56.3,47.1,38.7,43.7,40.1,36.0,92,77,55,29.89,29.70,10,2,0,0.00
2013-10-17,51.1,44.5,38.5,46.2,40.7,35.8,96,87,72,29.78,29.50,7,3,0,0.01
2013-10-18,50.2,41.3,34.0,41.4,37.2,33.0,98,86,70,29.51,29.36,8,3,0,0.00
2013-10-19,55.9,45.8,30.7,41.3,34.9,27.3,91,67,48,29.37,29.06,29,8,0,0.00
2013-10-20,50.9,37.5,29.3,36.6,31.9,26.5,98,82,49,29.69,29.36,6,2,0,0.00
2013-10-21,39.6,27.2,21.2,31.6,25.0,20.7,98,92,70,29.90,29.69,5,2,0,0.00
2013-10-22,37.4,23.6,16.0,29.8,21.7,14.6,98,93,73,29.99,29.91,5,1,0,0.00
2013-10-23,30.7,24.5,17.8,27.0,23.1,17.1,98,94,84,29.98,29.69,6,2,0,0.00
2013-10-24,31.6,25.4,17.2,25.6,22.5,15.8,98,89,75,29.79,29.48,10,4,0,0.00
2013-10-25,42.4,30.5,21.9,30.3,24.6,19.6,94,79,62,29.95,29.48,9,3,0,0.00
2013-10-26,34.2,20.4,8.8,27.2,17.9,6.5,98,90,75,30.31,29.97,4,2,0,0.00
2013-10-27,41.5,36.0,21.0,38.7,28.4,20.0,98,74,56,30.19,29.46,9,3,0,0.07
2013-10-28,54.7,41.9,36.7,42.8,38.5,36.2,98,89,58,29.43,28.81,22,5,0,0.03
2013-10-29,39.6,34.3,26.8,37.5,33.6,26.3,98,97,90,29.32,29.06,14,4,0,0.34
2013-10-30,35.2,26.4,21.4,34.7,25.9,20.9,98,98,96,29.28,28.95,4,1,0,0.01
2013-10-31,27.5,24.8,21.6,27.0,24.3,21.1,98,98,98,29.49,29.05,3,1,0,0.00
2013-11-1,26.6,24.8,22.5,26.1,24.1,22.0,98,97,93,29.92,29.49,6,3,0,0.00
2013-11-2,28.2,19.9,9.0,24.6,18.6,7.0,98,95,86,29.92,29.60,6,2,0,0.00
2013-11-3,28.6,15.6,7.5,25.8,14.1,5.4,98,94,88,29.64,29.41,4,1,0,0.00
2013-11-4,23.5,13.8,6.1,21.9,12.3,3.8,98,93,90,29.42,29.22,4,1,0,0.00
2013-11-5,25.3,18.0,8.4,24.8,16.8,6.3,98,95,88,30.03,29.30,14,5,0,0.00
2013-11-6,19.8,10.2,-2.9,16.8,7.6,-6.8,94,89,82,30.15,29.95,8,2,0,0.00
2013-11-7,17.2,6.3,-7.2,10.1,1.9,-11.2,89,82,71,29.95,29.70,10,5,0,0.00
2013-11-8,7.7,-1.3,-19.3,5.1,-4.8,-25.0,90,84,74,30.04,29.92,5,2,0,0.00
2013-11-9,27.9,21.2,4.8,24.2,16.6,2.0,95,83,70,29.93,29.53,15,6,0,0.00
2013-11-10,31.1,27.6,25.0,30.6,26.3,21.8,98,95,81,29.71,29.54,12,5,0,0.00
2013-11-11,24.4,14.9,2.1,23.9,13.5,-0.9,98,94,87,30.14,29.73,6,3,0,0.00
2013-11-12,13.5,4.6,-4.2,11.6,2.0,-8.0,92,89,83,30.14,29.86,4,1,0,0.00
2013-11-13,40.6,19.0,5.4,39.3,17.9,2.9,98,95,89,29.87,29.43,22,4,0,0.12
2013-11-14,42.3,28.6,19.6,39.3,23.7,12.1,98,82,70,29.89,29.43,29,15,0,0.32
2013-11-15,19.6,7.2,1.4,12.1,3.9,-1.8,92,86,72,29.97,29.86,11,2,0,0.00
2013-11-16,15.3,9.8,-3.5,13.9,7.7,-7.1,94,91,84,30.19,29.90,9,3,0,0.00
2013-11-17,3.4,-1.1,-12.1,0.4,-4.5,-16.7,88,85,78,30.27,30.16,4,1,0,0.00
2013-11-18,5.4,2.6,-0.4,2.6,-0.5,-3.6,88,87,86,30.17,29.99,3,0,0,0.00
2013-11-19,2.5,-12.8,-33.7,-0.5,-17.6,-40.9,87,78,66,30.01,29.92,0,0,0,0.00
2013-11-20,-26.9,-36.9,-40.0,-33.9,-44.7,-48.3,68,63,61,30.19,30.00,0,0,0,0.00
2013-11-21,-1.5,-31.4,-40.0,-5.1,-38.7,-48.5,84,66,60,30.14,29.36,0,0,0,0.00
2013-11-22,11.8,6.8,-0.4,9.4,4.2,-4.1,91,89,84,29.33,29.02,0,0,0,0.00
2013-11-23,7.0,2.2,-4.4,3.7,-1.1,-8.0,87,86,83,29.74,29.27,0,0,0,0.00
2013-11-24,8.1,3.9,-2.7,5.8,1.1,-6.3,90,88,84,29.87,29.73,0,0,0,0.00
2013-11-25,10.4,3.1,-5.6,8.3,0.2,-9.4,91,87,82,29.90,29.75,0,0,0,0.00
2013-11-26,1.2,-3.8,-11.0,-2.2,-7.6,-15.7,87,83,79,29.89,29.76,0,0,0,0.00
2013-11-27,2.7,-0.9,-10.3,-0.3,-4.3,-14.7,87,85,80,29.89,29.75,0,0,0,0.00